Hallam, Nebraska
Current Conditions -  °F | °C
As of 4:15 PM on Sunday 21 Dec 2014 (Local Time) from KBIE Reporting Station
Haze Haze  
Wind Chill: 34°   Ceiling: 700
Heat Index: 42°   Visibility: 5mi
Dew Point: 40°   Wind: 15mph
Humidity: 93%   Direction: 180°S
Pressure: 29.71"   Gusts: 20mph
Location:  40.54°N, 96.79°W
Report Text: KBIE 212215Z AUTO 18013G17KT 5SM BR OVC007 05/04 A2971 RMK AO2 T00530042
Loading
Personal Weather Stations






























Interactive Weather Map New forecast layout! Learn more

10-Day Weather Forecast

Advertisements
Track Severe Weather on mobile